Time;durP1;ratioP1;P1;durP2;ratioP2;P2;SDS_P1;SDS_P2;PMS_P1;PMS_P2;Temp;Humidity;BMP_temperature;BMP_pressure;BME280_temperature;BME280_humidity;BME280_pressure;Samples;Min_cycle;Max_cycle;Signal;HPM_P1;HPM_P2
2021/01/26 00:01:14;;;;;;;4.47;2.90;;;-0.20;99.90;;;;;;5042523;28;20588;-75
2021/01/26 00:03:40;;;;;;;5.27;3.93;;;-0.10;99.90;;;;;;5044225;28;20210;-76
2021/01/26 00:06:05;;;;;;;5.53;4.97;;;0.00;99.90;;;;;;5043071;28;20221;-75
2021/01/26 00:08:32;;;;;;;6.77;4.13;;;0.10;99.90;;;;;;5042350;28;20722;-75
2021/01/26 00:10:58;;;;;;;5.30;4.10;;;0.10;99.90;;;;;;5042874;28;20206;-75
2021/01/26 00:13:24;;;;;;;5.10;3.63;;;0.10;99.90;;;;;;5043447;28;20227;-76
2021/01/26 00:15:50;;;;;;;3.93;3.27;;;0.10;99.90;;;;;;5043752;28;20210;-75
2021/01/26 00:18:16;;;;;;;3.87;3.43;;;0.10;99.90;;;;;;5042864;28;20190;-75
2021/01/26 00:20:43;;;;;;;3.97;3.33;;;0.00;99.90;;;;;;5043376;28;20285;-75
2021/01/26 00:23:09;;;;;;;4.43;3.77;;;0.10;99.90;;;;;;5043182;28;20189;-75
2021/01/26 00:25:38;;;;;;;3.80;3.23;;;0.10;99.90;;;;;;5043350;28;20204;-75
2021/01/26 00:28:05;;;;;;;6.30;4.30;;;0.10;99.90;;;;;;5042789;28;20609;-74
2021/01/26 00:30:34;;;;;;;6.50;4.30;;;0.10;99.90;;;;;;5042708;28;20202;-75
2021/01/26 00:33:02;;;;;;;6.77;4.47;;;0.20;99.90;;;;;;5041941;28;20277;-75
2021/01/26 00:35:30;;;;;;;5.23;4.03;;;0.30;99.90;;;;;;5041933;28;20682;-75
2021/01/26 00:37:57;;;;;;;4.20;3.50;;;0.30;99.90;;;;;;5042441;28;20190;-76
2021/01/26 00:40:23;;;;;;;7.47;5.00;;;0.30;99.90;;;;;;5043164;28;20264;-75
2021/01/26 00:42:49;;;;;;;6.97;5.03;;;0.20;99.90;;;;;;5043408;28;20269;-75
2021/01/26 00:45:16;;;;;;;4.87;4.00;;;0.20;99.90;;;;;;5042660;28;20909;-76
2021/01/26 00:47:42;;;;;;;5.77;4.33;;;0.10;99.90;;;;;;5043848;28;20189;-75
2021/01/26 00:50:08;;;;;;;5.60;4.00;;;0.00;99.90;;;;;;5042884;28;20573;-76
2021/01/26 00:52:34;;;;;;;5.47;3.90;;;0.00;99.90;;;;;;5042223;28;21067;-75
2021/01/26 00:55:00;;;;;;;5.53;3.93;;;0.00;99.90;;;;;;5042466;28;20182;-76
2021/01/26 00:57:26;;;;;;;5.10;3.90;;;0.00;99.90;;;;;;5042576;28;20347;-75
2021/01/26 00:59:51;;;;;;;5.57;4.20;;;0.20;99.90;;;;;;5042044;28;20191;-75
2021/01/26 01:02:18;;;;;;;7.17;4.53;;;0.10;99.90;;;;;;5043632;28;20197;-75
2021/01/26 01:04:45;;;;;;;4.97;3.93;;;0.30;99.90;;;;;;5043168;28;20190;-75
2021/01/26 01:07:11;;;;;;;4.90;3.50;;;0.30;99.90;;;;;;5040693;28;20565;-75
2021/01/26 01:09:37;;;;;;;5.63;3.80;;;0.30;99.90;;;;;;5041577;28;20212;-76
2021/01/26 01:12:03;;;;;;;3.80;3.33;;;0.30;99.90;;;;;;5040990;28;20796;-75
2021/01/26 01:14:29;;;;;;;6.00;4.27;;;0.30;99.90;;;;;;5041998;28;20190;-76
2021/01/26 01:16:55;;;;;;;6.00;4.40;;;0.40;99.90;;;;;;5043382;28;20238;-75
2021/01/26 01:19:22;;;;;;;5.50;4.27;;;0.40;99.90;;;;;;5041268;28;20214;-75
2021/01/26 01:21:48;;;;;;;5.63;2.90;;;0.40;99.90;;;;;;5041642;28;20297;-76
2021/01/26 01:24:14;;;;;;;6.70;3.60;;;0.40;99.90;;;;;;5043085;28;21135;-75
2021/01/26 01:26:39;;;;;;;6.83;4.23;;;0.40;99.90;;;;;;5042823;28;20200;-75
2021/01/26 01:29:05;;;;;;;6.83;4.27;;;0.30;99.90;;;;;;5042591;28;20194;-75
2021/01/26 01:31:32;;;;;;;6.27;4.33;;;0.20;99.90;;;;;;5042837;28;20206;-76
2021/01/26 01:33:58;;;;;;;6.40;4.60;;;0.20;99.90;;;;;;5043039;28;20194;-75
2021/01/26 01:36:24;;;;;;;5.83;3.23;;;0.10;99.90;;;;;;5040467;28;20625;-75
2021/01/26 01:38:49;;;;;;;5.73;4.10;;;0.10;99.90;;;;;;5042276;28;20183;-75
2021/01/26 01:41:15;;;;;;;5.23;3.97;;;0.20;99.90;;;;;;5043104;28;20233;-75
2021/01/26 01:43:40;;;;;;;6.40;4.37;;;0.30;99.90;;;;;;5042448;28;20244;-74
2021/01/26 01:46:13;;;;;;;6.70;3.97;;;0.30;99.90;;;;;;5041937;28;20201;-76
2021/01/26 01:48:39;;;;;;;6.53;4.73;;;0.30;99.90;;;;;;5042162;28;20656;-75
2021/01/26 01:51:16;;;;;;;7.53;4.33;;;0.40;99.90;;;;;;5041388;28;20279;-75
2021/01/26 01:53:46;;;;;;;5.17;4.17;;;0.40;99.90;;;;;;5042134;28;20189;-75
2021/01/26 01:56:24;;;;;;;3.77;3.40;;;0.50;99.90;;;;;;5040265;28;20226;-75
2021/01/26 01:58:55;;;;;;;6.17;4.30;;;0.50;99.90;;;;;;5041904;28;20192;-75
2021/01/26 02:01:21;;;;;;;4.90;3.40;;;0.50;99.90;;;;;;5041300;28;20210;-76
2021/01/26 02:03:56;;;;;;;3.00;2.70;;;0.50;99.90;;;;;;5043552;28;20194;-76
2021/01/26 02:06:26;;;;;;;5.50;2.77;;;0.60;99.90;;;;;;5045792;28;20192;-75
2021/01/26 02:09:09;;;;;;;4.67;3.83;;;0.60;99.90;;;;;;5043757;28;20690;-76
2021/01/26 02:11:35;;;;;;;4.60;3.33;;;0.70;99.90;;;;;;5044224;28;20210;-76
2021/01/26 02:14:01;;;;;;;4.57;3.00;;;0.70;99.90;;;;;;5043936;28;20205;-76
2021/01/26 02:16:52;;;;;;;4.07;3.33;;;0.60;99.90;;;;;;5044038;28;20210;-76
2021/01/26 02:19:45;;;;;;;4.30;3.23;;;0.60;99.90;;;;;;5043236;28;20209;-76
2021/01/26 02:22:25;;;;;;;3.27;2.80;;;0.60;99.90;;;;;;5041287;28;20589;-76
2021/01/26 02:24:57;;;;;;;4.10;2.60;;;0.70;99.90;;;;;;5042920;28;20292;-76
2021/01/26 02:28:04;;;;;;;4.70;3.53;;;0.60;99.90;;;;;;5043567;28;20190;-76
2021/01/26 02:30:46;;;;;;;6.27;3.50;;;0.60;99.90;;;;;;5037039;28;20291;-76
2021/01/26 02:33:35;;;;;;;3.37;2.80;;;0.60;99.90;;;;;;5043307;28;20206;-76
2021/01/26 02:36:32;;;;;;;4.07;2.90;;;0.70;99.90;;;;;;5041960;28;20584;-76
2021/01/26 02:39:18;;;;;;;3.07;2.77;;;0.60;99.90;;;;;;5042662;28;20186;-75
2021/01/26 02:41:51;;;;;;;3.27;2.53;;;0.70;99.90;;;;;;5039984;28;20205;-76
2021/01/26 02:44:31;;;;;;;4.97;3.20;;;0.60;99.90;;;;;;5042426;28;20188;-76
2021/01/26 02:47:09;;;;;;;5.23;2.83;;;0.60;99.90;;;;;;5042882;28;20189;-75
2021/01/26 02:49:56;;;;;;;4.07;2.87;;;0.50;99.90;;;;;;5040654;28;20311;-76
2021/01/26 02:52:42;;;;;;;4.90;3.53;;;0.50;99.90;;;;;;5043140;28;20236;-76
2021/01/26 02:55:17;;;;;;;3.97;3.57;;;0.50;99.90;;;;;;5042352;28;20209;-76
2021/01/26 02:57:51;;;;;;;3.57;2.83;;;0.50;99.90;;;;;;5043150;28;20209;-76
2021/01/26 03:00:28;;;;;;;4.80;3.67;;;0.50;99.90;;;;;;5041840;28;20206;-76
2021/01/26 03:03:03;;;;;;;4.60;3.70;;;0.50;99.90;;;;;;5041826;28;20189;-76
2021/01/26 03:05:41;;;;;;;4.17;3.07;;;0.50;99.90;;;;;;5042677;28;20695;-76
2021/01/26 03:08:23;;;;;;;3.20;2.90;;;0.50;99.90;;;;;;5042346;28;20182;-76
2021/01/26 03:11:02;;;;;;;6.40;3.77;;;0.50;99.90;;;;;;5038361;28;20225;-76
2021/01/26 03:13:30;;;;;;;4.40;3.33;;;0.50;99.90;;;;;;5041973;28;20600;-76
2021/01/26 03:16:04;;;;;;;4.30;3.67;;;0.60;99.90;;;;;;5040143;28;20574;-76
2021/01/26 03:18:38;;;;;;;4.37;3.13;;;0.50;99.90;;;;;;5043034;28;20189;-75
2021/01/26 03:21:05;;;;;;;5.00;3.30;;;0.50;99.90;;;;;;5041990;28;20228;-76
2021/01/26 03:23:42;;;;;;;6.30;3.40;;;0.50;99.90;;;;;;5041310;28;20204;-76
2021/01/26 03:26:13;;;;;;;4.70;3.63;;;0.50;99.90;;;;;;5040561;28;20278;-76
2021/01/26 03:28:40;;;;;;;4.17;3.27;;;0.50;99.90;;;;;;5042869;28;20205;-76
2021/01/26 03:31:08;;;;;;;5.37;4.07;;;0.50;99.90;;;;;;5041585;28;20222;-76
2021/01/26 03:33:40;;;;;;;4.90;3.93;;;0.60;99.90;;;;;;5042941;28;20205;-76
2021/01/26 03:36:06;;;;;;;5.97;3.47;;;0.50;99.90;;;;;;5042036;28;20211;-76
2021/01/26 03:38:33;;;;;;;4.63;3.33;;;0.50;99.90;;;;;;5042265;28;20229;-75
2021/01/26 03:41:02;;;;;;;3.83;3.40;;;0.50;99.90;;;;;;5041694;28;20217;-76
2021/01/26 03:43:28;;;;;;;3.57;2.70;;;0.50;99.90;;;;;;5041933;28;20182;-76
2021/01/26 03:46:24;;;;;;;3.80;2.70;;;0.50;99.90;;;;;;5040825;28;20258;-76
2021/01/26 03:49:07;;;;;;;4.63;3.43;;;0.50;99.90;;;;;;5042060;28;20198;-76
2021/01/26 03:52:04;;;;;;;4.73;3.27;;;0.50;99.90;;;;;;5040168;28;20293;-75
2021/01/26 03:54:49;;;;;;;3.73;3.10;;;0.60;99.90;;;;;;5041669;28;20190;-76
2021/01/26 03:57:38;;;;;;;4.80;3.80;;;0.60;99.90;;;;;;5040173;28;20221;-76
2021/01/26 04:00:12;;;;;;;3.83;3.13;;;0.60;99.90;;;;;;5040282;28;20201;-76
2021/01/26 04:02:57;;;;;;;3.97;3.27;;;0.60;99.90;;;;;;5040901;28;20193;-76
2021/01/26 04:05:32;;;;;;;5.80;3.83;;;0.60;99.90;;;;;;5041922;28;20184;-76
2021/01/26 04:08:18;;;;;;;4.13;3.07;;;0.60;99.90;;;;;;5041285;28;20551;-76
2021/01/26 04:10:57;;;;;;;3.97;3.47;;;0.60;99.90;;;;;;5041733;28;20317;-76
2021/01/26 04:13:35;;;;;;;3.73;3.00;;;0.60;99.90;;;;;;5040743;28;20186;-76
2021/01/26 04:16:02;;;;;;;4.30;3.33;;;0.50;99.90;;;;;;5040364;28;20668;-76
2021/01/26 04:18:34;;;;;;;4.97;2.87;;;0.60;99.90;;;;;;5040854;28;20183;-75
2021/01/26 04:21:01;;;;;;;3.93;2.97;;;0.50;99.90;;;;;;5040059;28;20213;-76
2021/01/26 04:23:27;;;;;;;4.33;3.30;;;0.50;99.90;;;;;;5041997;28;20217;-76
2021/01/26 04:26:02;;;;;;;3.53;2.40;;;0.60;99.90;;;;;;5040171;28;20190;-75
2021/01/26 04:28:36;;;;;;;4.67;3.83;;;0.50;99.90;;;;;;5042254;28;20201;-76
2021/01/26 04:31:03;;;;;;;4.30;3.80;;;0.50;99.90;;;;;;5040388;28;20225;-76
2021/01/26 04:33:29;;;;;;;3.67;3.03;;;0.50;99.90;;;;;;5037875;28;20198;-76
2021/01/26 04:35:54;;;;;;;3.23;2.53;;;0.40;99.90;;;;;;5041017;28;20217;-76
2021/01/26 04:38:20;;;;;;;4.90;3.33;;;0.40;99.90;;;;;;5041411;28;20685;-76
2021/01/26 04:40:46;;;;;;;5.70;4.43;;;0.40;99.90;;;;;;5041275;28;20214;-76
2021/01/26 04:43:34;;;;;;;5.20;3.80;;;0.40;99.90;;;;;;5041705;28;20559;-76
2021/01/26 04:46:27;;;;;;;5.03;3.77;;;0.40;99.90;;;;;;5041574;28;20690;-76
2021/01/26 04:49:10;;;;;;;6.13;4.03;;;0.50;99.90;;;;;;5041213;28;20225;-76
2021/01/26 04:52:10;;;;;;;5.27;3.80;;;0.40;99.90;;;;;;5041891;28;20735;-76
2021/01/26 04:54:48;;;;;;;4.07;3.37;;;0.40;99.90;;;;;;5041429;28;20202;-76
2021/01/26 04:57:42;;;;;;;4.93;3.30;;;0.50;99.90;;;;;;5041650;28;20235;-76
2021/01/26 05:00:22;;;;;;;3.53;3.23;;;0.40;99.90;;;;;;5040508;28;20293;-76
2021/01/26 05:03:02;;;;;;;3.37;2.60;;;0.40;99.90;;;;;;5041243;28;20240;-76
2021/01/26 05:05:33;;;;;;;3.97;2.93;;;0.40;99.90;;;;;;5041401;28;20632;-76
2021/01/26 05:08:05;;;;;;;5.03;4.00;;;0.40;99.90;;;;;;5041568;28;20963;-76
2021/01/26 05:10:37;;;;;;;4.50;3.00;;;0.40;99.90;;;;;;5041638;28;20209;-75
2021/01/26 05:13:21;;;;;;;9.73;5.33;;;0.40;99.90;;;;;;5040648;28;20224;-75
2021/01/26 05:15:53;;;;;;;4.97;3.10;;;0.40;99.90;;;;;;5041547;28;20214;-76
2021/01/26 05:18:26;;;;;;;5.43;4.00;;;0.30;99.90;;;;;;5041946;28;20190;-76
2021/01/26 05:20:59;;;;;;;5.13;4.33;;;0.40;99.90;;;;;;5042283;28;20570;-76
2021/01/26 05:23:35;;;;;;;6.33;3.27;;;0.40;99.90;;;;;;5041834;28;20210;-76
2021/01/26 05:26:01;;;;;;;4.40;3.33;;;0.30;99.90;;;;;;5040814;28;20196;-76
2021/01/26 05:28:26;;;;;;;4.27;3.00;;;0.30;99.90;;;;;;5042050;28;20544;-75
2021/01/26 05:31:04;;;;;;;4.10;3.30;;;0.30;99.90;;;;;;5041592;28;20269;-75
2021/01/26 05:33:30;;;;;;;4.47;3.80;;;0.30;99.90;;;;;;5041229;28;20178;-76
2021/01/26 05:35:58;;;;;;;3.83;3.37;;;0.40;99.90;;;;;;5041922;28;20209;-76
2021/01/26 05:38:23;;;;;;;3.97;2.97;;;0.40;99.90;;;;;;5042956;28;20186;-76
2021/01/26 05:40:53;;;;;;;4.97;4.17;;;0.40;99.90;;;;;;5045706;28;20718;-76
2021/01/26 05:43:22;;;;;;;5.57;4.03;;;0.50;99.90;;;;;;5045522;28;20554;-76
2021/01/26 05:45:54;;;;;;;5.77;3.73;;;0.60;99.90;;;;;;5044368;28;20187;-75
2021/01/26 05:48:22;;;;;;;6.70;4.10;;;0.50;99.90;;;;;;5045756;28;20201;-76
2021/01/26 05:50:49;;;;;;;3.83;2.87;;;0.50;99.90;;;;;;5044781;28;20688;-76
2021/01/26 05:53:31;;;;;;;4.97;3.90;;;0.50;99.90;;;;;;5043631;28;20280;-76
2021/01/26 05:56:11;;;;;;;6.10;4.70;;;0.40;99.90;;;;;;5043865;28;20275;-76
2021/01/26 05:58:39;;;;;;;8.47;4.03;;;0.40;99.90;;;;;;5045197;28;20178;-76
2021/01/26 06:01:22;;;;;;;5.57;4.47;;;0.40;99.90;;;;;;5044373;28;20579;-76
2021/01/26 06:04:29;;;;;;;5.57;4.43;;;0.40;99.90;;;;;;5044494;28;20174;-76
2021/01/26 06:06:56;;;;;;;5.87;4.30;;;0.40;99.90;;;;;;5042718;28;20628;-76
2021/01/26 06:09:33;;;;;;;4.57;3.67;;;0.30;99.90;;;;;;5044716;28;20195;-76
2021/01/26 06:12:10;;;;;;;5.53;4.37;;;0.30;99.90;;;;;;5045285;28;20271;-76
2021/01/26 06:14:37;;;;;;;5.63;4.20;;;0.30;99.90;;;;;;5043981;28;20182;-76
2021/01/26 06:17:10;;;;;;;5.03;3.30;;;0.20;99.90;;;;;;5044207;28;21279;-76
2021/01/26 06:19:37;;;;;;;5.03;4.37;;;0.30;99.90;;;;;;5043838;28;20185;-76
2021/01/26 06:22:03;;;;;;;5.13;4.17;;;0.20;99.90;;;;;;5045192;28;20206;-76
2021/01/26 06:24:31;;;;;;;8.33;4.93;;;0.20;99.90;;;;;;5043586;28;20690;-76
2021/01/26 06:27:15;;;;;;;5.83;4.37;;;0.20;99.90;;;;;;5045800;28;20552;-76
2021/01/26 06:30:01;;;;;;;6.10;4.00;;;0.20;99.90;;;;;;5043659;28;20182;-76
2021/01/26 06:32:38;;;;;;;5.17;4.57;;;0.20;99.90;;;;;;5043099;28;20243;-75
2021/01/26 06:35:23;;;;;;;4.83;4.23;;;0.20;99.90;;;;;;5042741;28;20193;-76
2021/01/26 06:37:48;;;;;;;5.60;4.27;;;0.20;99.90;;;;;;5043898;28;20998;-76
2021/01/26 06:40:39;;;;;;;7.30;5.13;;;0.30;99.90;;;;;;5043435;28;20263;-75
2021/01/26 06:43:22;;;;;;;5.23;3.87;;;0.40;99.90;;;;;;5043660;28;20217;-76
2021/01/26 06:46:01;;;;;;;7.47;4.73;;;0.40;99.90;;;;;;5043489;28;20175;-75
2021/01/26 06:48:45;;;;;;;4.53;3.57;;;0.40;99.90;;;;;;5044082;28;20178;-76
2021/01/26 06:51:43;;;;;;;6.57;4.40;;;0.40;99.90;;;;;;5044687;28;20205;-75
2021/01/26 06:54:14;;;;;;;5.17;4.37;;;0.30;99.90;;;;;;5043203;28;20182;-76
2021/01/26 06:57:17;;;;;;;7.83;4.77;;;0.30;99.90;;;;;;5044204;28;20209;-76
2021/01/26 07:00:20;;;;;;;5.83;4.10;;;0.30;99.90;;;;;;5043064;28;20182;-76
2021/01/26 07:02:51;;;;;;;5.70;4.27;;;0.30;99.90;;;;;;5039435;28;20182;-76
2021/01/26 07:05:36;;;;;;;7.10;5.43;;;0.30;99.90;;;;;;5042701;28;20660;-76
2021/01/26 07:08:13;;;;;;;4.60;3.60;;;0.40;99.90;;;;;;5043066;28;20174;-76
2021/01/26 07:10:56;;;;;;;4.67;3.47;;;0.40;99.90;;;;;;5044106;28;20263;-76
2021/01/26 07:13:29;;;;;;;4.57;3.27;;;0.40;99.90;;;;;;5043376;28;20180;-76
2021/01/26 07:16:06;;;;;;;4.70;3.73;;;0.40;99.90;;;;;;5043846;28;20213;-75
2021/01/26 07:18:49;;;;;;;4.07;3.47;;;0.50;99.90;;;;;;5043687;28;20186;-76
2021/01/26 07:21:48;;;;;;;4.63;3.30;;;0.50;99.90;;;;;;5040979;28;20692;-76
2021/01/26 07:24:41;;;;;;;4.83;3.87;;;0.50;99.90;;;;;;5041171;28;20182;-76
2021/01/26 07:27:23;;;;;;;4.20;2.80;;;0.50;99.90;;;;;;5041347;28;20727;-76
2021/01/26 07:30:08;;;;;;;5.77;4.03;;;0.60;99.90;;;;;;5044166;28;20188;-76
2021/01/26 07:32:47;;;;;;;5.30;3.00;;;0.60;99.90;;;;;;5037512;28;20189;-76
2021/01/26 07:35:39;;;;;;;3.93;2.77;;;0.60;99.90;;;;;;5045695;28;20166;-75
2021/01/26 07:38:15;;;;;;;4.77;4.00;;;0.60;99.90;;;;;;5045114;28;20305;-76
2021/01/26 07:40:54;;;;;;;5.67;3.77;;;0.70;99.90;;;;;;5045161;28;20208;-76
2021/01/26 07:43:52;;;;;;;6.37;3.77;;;0.70;99.90;;;;;;5043208;28;20205;-75
2021/01/26 07:46:27;;;;;;;5.40;3.83;;;0.80;99.90;;;;;;5043503;28;20208;-75
2021/01/26 07:49:46;;;;;;;5.43;3.20;;;0.80;99.90;;;;;;5041916;28;20177;-76
2021/01/26 07:52:15;;;;;;;4.37;3.37;;;0.80;99.90;;;;;;5041282;28;20672;-75
2021/01/26 07:54:53;;;;;;;5.17;3.93;;;0.80;99.90;;;;;;5035280;28;20882;-76
2021/01/26 07:57:22;;;;;;;3.97;3.47;;;0.80;99.90;;;;;;5043186;28;20221;-76
2021/01/26 07:59:56;;;;;;;6.00;4.10;;;0.80;99.90;;;;;;5044081;28;20205;-77
2021/01/26 08:02:26;;;;;;;5.43;4.03;;;0.70;99.90;;;;;;5042964;28;20197;-76
2021/01/26 08:04:53;;;;;;;5.60;4.30;;;0.70;99.90;;;;;;5043713;28;20229;-77
2021/01/26 08:07:32;;;;;;;6.10;4.23;;;0.80;99.90;;;;;;5044873;28;20232;-75
2021/01/26 08:10:01;;;;;;;4.93;3.53;;;0.80;99.90;;;;;;5044310;28;20209;-76
2021/01/26 08:12:29;;;;;;;5.87;4.50;;;0.90;99.90;;;;;;5045291;28;20245;-76
2021/01/26 08:15:09;;;;;;;5.53;3.87;;;0.90;99.90;;;;;;5045398;28;20171;-76
2021/01/26 08:17:36;;;;;;;5.37;4.60;;;0.90;99.90;;;;;;5043980;28;20204;-76
2021/01/26 08:20:05;;;;;;;5.47;3.60;;;0.90;99.90;;;;;;5044348;28;20179;-75
2021/01/26 08:22:44;;;;;;;6.60;4.53;;;1.00;99.90;;;;;;5045053;28;20197;-77
2021/01/26 08:25:21;;;;;;;4.73;3.97;;;1.10;99.90;;;;;;5042692;28;20178;-77
2021/01/26 08:27:47;;;;;;;7.00;3.73;;;1.10;99.90;;;;;;5044565;28;20181;-74
2021/01/26 08:30:50;;;;;;;5.33;4.10;;;1.10;99.90;;;;;;5041765;28;20271;-77
2021/01/26 08:33:21;;;;;;;6.13;4.73;;;1.10;99.90;;;;;;5038547;28;20194;-76
2021/01/26 08:36:45;;;;;;;6.60;4.33;;;1.20;99.90;;;;;;5044256;28;20186;-76
2021/01/26 08:39:19;;;;;;;4.80;4.30;;;1.20;99.90;;;;;;5025371;28;20194;-76
2021/01/26 08:41:51;;;;;;;5.03;3.83;;;1.20;99.90;;;;;;5044759;28;20201;-76
2021/01/26 08:44:22;;;;;;;5.37;4.03;;;1.20;99.90;;;;;;5045041;28;20295;-75
2021/01/26 08:46:53;;;;;;;6.70;4.47;;;1.30;99.90;;;;;;5044722;28;20210;-75
2021/01/26 08:49:32;;;;;;;7.17;5.00;;;1.40;99.90;;;;;;5044393;28;20193;-76
2021/01/26 08:52:20;;;;;;;5.90;3.83;;;1.50;99.90;;;;;;5043120;28;20210;-75
2021/01/26 08:54:47;;;;;;;5.13;3.53;;;1.50;99.90;;;;;;5043941;28;20174;-76
2021/01/26 08:57:27;;;;;;;4.47;3.40;;;1.70;99.90;;;;;;5044482;28;20217;-74
2021/01/26 09:00:12;;;;;;;4.80;3.90;;;1.80;99.90;;;;;;5042132;28;20178;-76
2021/01/26 09:02:47;;;;;;;4.83;3.50;;;1.80;99.90;;;;;;5044726;28;20175;-76
2021/01/26 09:05:35;;;;;;;7.83;4.33;;;1.90;99.90;;;;;;5044451;28;20174;-76
2021/01/26 09:08:05;;;;;;;4.43;3.00;;;2.10;99.90;;;;;;5042511;28;20184;-76
2021/01/26 09:10:30;;;;;;;6.53;4.03;;;2.20;99.90;;;;;;5042994;28;20208;-76
2021/01/26 09:13:23;;;;;;;5.50;4.93;;;2.30;99.90;;;;;;5046496;28;20715;-76
2021/01/26 09:15:52;;;;;;;6.00;4.33;;;2.30;99.90;;;;;;5047369;28;20218;-76
2021/01/26 09:18:27;;;;;;;5.70;3.97;;;2.30;99.90;;;;;;5046684;28;20842;-74
2021/01/26 09:21:06;;;;;;;4.67;3.87;;;2.30;99.90;;;;;;5042021;28;20201;-76
2021/01/26 09:23:32;;;;;;;5.47;3.63;;;2.20;99.90;;;;;;5064154;22;20174;-77
2021/01/26 09:25:58;;;;;;;3.93;2.93;;;2.20;99.90;;;;;;5016645;28;20211;-78
2021/01/26 09:28:27;;;;;;;5.67;4.23;;;2.10;99.90;;;;;;5018586;28;20709;-77
2021/01/26 09:30:59;;;;;;;4.37;3.00;;;2.10;99.90;;;;;;5010451;28;20944;-78
2021/01/26 09:33:29;;;;;;;5.43;3.33;;;2.20;99.90;;;;;;5015392;28;20206;-77
2021/01/26 09:36:08;;;;;;;4.27;3.30;;;2.40;99.90;;;;;;5008130;28;20245;-77
2021/01/26 09:38:38;;;;;;;5.90;4.20;;;2.40;99.90;;;;;;5007039;28;20179;-77
2021/01/26 09:41:13;;;;;;;7.87;4.83;;;2.40;99.90;;;;;;5006663;28;20203;-79
2021/01/26 09:43:45;;;;;;;7.20;4.80;;;2.40;99.90;;;;;;5007576;28;20287;-78
2021/01/26 09:46:32;;;;;;;9.10;5.27;;;2.40;99.90;;;;;;5006877;28;20279;-77
2021/01/26 09:49:23;;;;;;;6.63;4.13;;;2.40;99.90;;;;;;5006255;28;20187;-78
2021/01/26 09:51:53;;;;;;;7.23;4.63;;;2.40;99.90;;;;;;5006686;28;20215;-78
2021/01/26 09:54:26;;;;;;;7.70;5.37;;;2.30;99.90;;;;;;4998061;28;20211;-76
2021/01/26 09:56:53;;;;;;;6.07;4.60;;;2.30;99.90;;;;;;5006846;28;20226;-78
2021/01/26 09:59:20;;;;;;;5.30;3.87;;;2.30;99.90;;;;;;5006788;28;20349;-76
2021/01/26 10:01:50;;;;;;;6.30;4.20;;;2.30;99.90;;;;;;5007561;28;20550;-76
2021/01/26 10:04:20;;;;;;;5.73;4.67;;;2.20;99.90;;;;;;5008005;28;20246;-77
2021/01/26 10:06:47;;;;;;;7.90;5.67;;;2.10;99.90;;;;;;5007548;28;20699;-76
2021/01/26 10:09:26;;;;;;;7.83;5.10;;;2.10;99.90;;;;;;5007817;28;20234;-77
2021/01/26 10:11:54;;;;;;;6.17;4.20;;;2.00;99.90;;;;;;5005005;28;20233;-79
2021/01/26 10:14:27;;;;;;;7.17;5.27;;;2.00;99.90;;;;;;5005981;28;20229;-76
2021/01/26 10:16:55;;;;;;;6.43;4.20;;;2.00;99.90;;;;;;5007207;28;20211;-76
2021/01/26 10:19:32;;;;;;;5.87;4.40;;;2.10;99.90;;;;;;5007157;28;20238;-78
2021/01/26 10:22:10;;;;;;;6.83;4.33;;;2.00;99.90;;;;;;5006612;28;20233;-77
2021/01/26 10:24:37;;;;;;;8.53;5.57;;;2.10;99.90;;;;;;5005741;28;20222;-77
2021/01/26 10:27:21;;;;;;;6.23;4.50;;;2.00;99.90;;;;;;5006731;28;20186;-76
2021/01/26 10:29:47;;;;;;;5.83;4.50;;;2.10;99.90;;;;;;5005237;28;20306;-77
2021/01/26 10:32:42;;;;;;;6.47;4.57;;;2.20;99.90;;;;;;5005595;28;20238;-76
2021/01/26 10:35:21;;;;;;;9.60;6.20;;;2.20;99.90;;;;;;4996204;28;20207;-77
2021/01/26 10:37:48;;;;;;;8.23;5.50;;;2.20;99.90;;;;;;5005715;28;20349;-76
2021/01/26 10:40:35;;;;;;;7.93;4.93;;;2.30;99.90;;;;;;5005496;28;20878;-76
2021/01/26 10:43:11;;;;;;;10.00;5.87;;;2.30;99.90;;;;;;5004024;28;20191;-76
2021/01/26 10:45:52;;;;;;;8.40;5.17;;;2.30;99.90;;;;;;5000108;28;20214;-76
2021/01/26 10:48:32;;;;;;;7.10;5.17;;;2.30;99.90;;;;;;5000655;28;20191;-77
2021/01/26 10:51:29;;;;;;;9.43;5.27;;;2.30;99.90;;;;;;5000490;28;20186;-76
2021/01/26 10:53:55;;;;;;;7.57;4.87;;;2.30;99.90;;;;;;5001683;28;20689;-77
2021/01/26 10:56:21;;;;;;;9.50;6.43;;;2.40;99.90;;;;;;5002313;28;20285;-79
2021/01/26 10:58:48;;;;;;;6.90;5.63;;;2.50;99.90;;;;;;5002750;28;20187;-75
2021/01/26 11:01:20;;;;;;;7.47;5.77;;;2.50;99.90;;;;;;5007288;28;20191;-77
2021/01/26 11:03:45;;;;;;;6.40;5.27;;;2.50;99.90;;;;;;5005750;28;20286;-77
2021/01/26 11:06:11;;;;;;;8.63;6.00;;;2.40;99.90;;;;;;5004258;28;20334;-77
2021/01/26 11:08:37;;;;;;;9.13;5.77;;;2.40;99.90;;;;;;5005978;28;20191;-77
2021/01/26 11:11:05;;;;;;;8.10;5.80;;;2.30;99.90;;;;;;5004791;28;20274;-77
2021/01/26 11:13:30;;;;;;;9.50;6.70;;;2.20;99.90;;;;;;5004447;28;20194;-78
2021/01/26 11:15:56;;;;;;;8.77;5.73;;;2.30;99.90;;;;;;5006974;28;20859;-77
2021/01/26 11:18:22;;;;;;;6.83;4.57;;;2.30;99.90;;;;;;5006493;28;20188;-77
2021/01/26 11:20:48;;;;;;;7.47;5.97;;;2.40;99.90;;;;;;5005647;28;20184;-78
2021/01/26 11:23:14;;;;;;;10.23;6.67;;;2.40;99.90;;;;;;5005172;28;20183;-79
2021/01/26 11:25:40;;;;;;;10.07;6.73;;;2.40;99.90;;;;;;5004569;28;20234;-77
2021/01/26 11:28:06;;;;;;;10.77;7.47;;;2.40;99.90;;;;;;5002118;28;20254;-77
2021/01/26 11:30:33;;;;;;;7.60;5.47;;;2.50;99.90;;;;;;4992416;28;20183;-77
2021/01/26 11:33:01;;;;;;;11.00;6.63;;;2.50;99.90;;;;;;5000675;28;20196;-79
2021/01/26 11:35:27;;;;;;;11.20;7.33;;;2.60;99.90;;;;;;5004343;28;20286;-78
2021/01/26 11:37:53;;;;;;;9.97;5.77;;;2.60;99.90;;;;;;5004586;28;20222;-78
2021/01/26 11:40:20;;;;;;;9.93;7.77;;;2.60;99.90;;;;;;4975638;28;20188;-79
2021/01/26 11:42:46;;;;;;;10.07;7.20;;;2.70;99.90;;;;;;5000980;28;20217;-79
2021/01/26 11:45:16;;;;;;;9.33;6.47;;;2.80;99.90;;;;;;5002199;28;20210;-79
2021/01/26 11:47:42;;;;;;;10.23;6.63;;;2.80;99.90;;;;;;5001877;28;20684;-78
2021/01/26 11:50:10;;;;;;;10.13;6.47;;;2.70;99.90;;;;;;5002769;28;20217;-79
2021/01/26 11:52:37;;;;;;;9.07;5.50;;;2.60;99.90;;;;;;5002058;28;20190;-78
2021/01/26 11:55:06;;;;;;;12.03;7.50;;;2.60;99.90;;;;;;5001293;28;20987;-78
2021/01/26 11:57:33;;;;;;;8.80;6.33;;;2.60;99.90;;;;;;5003838;28;20931;-79
2021/01/26 11:59:58;;;;;;;7.97;5.67;;;2.70;99.90;;;;;;5003879;28;20237;-80
2021/01/26 12:02:26;;;;;;;8.70;5.30;;;2.60;99.90;;;;;;5005339;28;20689;-79
2021/01/26 12:04:52;;;;;;;11.60;7.00;;;2.50;99.90;;;;;;5003890;28;20200;-79
2021/01/26 12:07:17;;;;;;;11.20;6.33;;;2.50;99.90;;;;;;5005565;28;20188;-79
2021/01/26 12:09:44;;;;;;;12.43;8.00;;;2.50;99.90;;;;;;5001490;28;20732;-79
2021/01/26 12:12:10;;;;;;;8.63;5.20;;;2.50;99.90;;;;;;5001349;28;20682;-79
2021/01/26 12:14:35;;;;;;;12.97;7.37;;;2.50;99.90;;;;;;5005278;28;20208;-79
2021/01/26 12:17:01;;;;;;;7.60;5.83;;;2.70;99.90;;;;;;5003968;28;20207;-79
2021/01/26 12:19:28;;;;;;;9.77;6.57;;;2.70;99.90;;;;;;5003776;28;20207;-79
2021/01/26 12:21:55;;;;;;;8.70;6.13;;;2.70;99.90;;;;;;5003299;28;20239;-79
2021/01/26 12:24:20;;;;;;;9.30;6.40;;;2.80;99.90;;;;;;5004800;28;20219;-79
2021/01/26 12:26:46;;;;;;;10.37;7.10;;;2.90;99.90;;;;;;5005461;28;20187;-79
2021/01/26 12:29:12;;;;;;;9.63;6.47;;;2.90;99.90;;;;;;5003127;28;20186;-78
2021/01/26 12:31:38;;;;;;;10.90;6.83;;;2.90;99.90;;;;;;5004707;28;20215;-79
2021/01/26 12:34:04;;;;;;;9.50;6.67;;;3.00;99.90;;;;;;5003448;28;20211;-78
2021/01/26 12:36:29;;;;;;;10.23;7.23;;;3.10;99.90;;;;;;5004418;28;20203;-79
2021/01/26 12:38:55;;;;;;;9.57;5.90;;;3.20;99.90;;;;;;5003692;28;20230;-78
2021/01/26 12:41:21;;;;;;;10.90;6.07;;;3.20;99.90;;;;;;5004438;28;20197;-79
2021/01/26 12:43:46;;;;;;;8.77;6.13;;;3.10;99.90;;;;;;5004773;28;20703;-78
2021/01/26 12:46:12;;;;;;;10.73;6.50;;;3.10;99.90;;;;;;5005500;28;20192;-80
2021/01/26 12:48:38;;;;;;;9.27;6.37;;;3.10;99.90;;;;;;5004832;28;20609;-78
2021/01/26 12:51:04;;;;;;;12.40;6.73;;;3.00;99.90;;;;;;5003224;28;20707;-78
2021/01/26 12:53:30;;;;;;;10.83;7.63;;;3.00;99.90;;;;;;5003383;28;20181;-77
2021/01/26 12:55:55;;;;;;;9.37;6.17;;;3.20;99.90;;;;;;5003802;28;20728;-79
2021/01/26 12:58:21;;;;;;;8.87;6.33;;;3.20;99.90;;;;;;5002745;28;20610;-79
2021/01/26 13:00:47;;;;;;;9.53;5.17;;;3.00;99.90;;;;;;5004112;28;20318;-79
2021/01/26 13:03:13;;;;;;;9.57;6.30;;;3.00;99.90;;;;;;5004628;28;20641;-78
2021/01/26 13:05:39;;;;;;;9.70;6.47;;;2.90;99.90;;;;;;5005029;28;20207;-78
2021/01/26 13:08:05;;;;;;;10.50;7.13;;;2.80;99.90;;;;;;5003396;28;21017;-80
2021/01/26 13:10:32;;;;;;;8.13;5.53;;;2.70;99.90;;;;;;5003750;28;20627;-79
2021/01/26 13:12:58;;;;;;;8.70;6.60;;;2.60;99.90;;;;;;5004541;28;20608;-79
2021/01/26 13:15:25;;;;;;;9.30;6.37;;;2.50;99.90;;;;;;5004685;28;20203;-77
2021/01/26 13:17:53;;;;;;;11.07;7.03;;;2.60;99.90;;;;;;5002772;28;20211;-78
2021/01/26 13:20:19;;;;;;;9.87;5.90;;;2.60;99.90;;;;;;5002164;28;20187;-78
2021/01/26 13:22:45;;;;;;;8.40;5.77;;;2.70;99.90;;;;;;5003624;28;20176;-79
2021/01/26 13:25:18;;;;;;;10.10;5.60;;;2.90;99.90;;;;;;5003302;28;20218;-78
2021/01/26 13:27:44;;;;;;;10.10;6.13;;;2.90;99.90;;;;;;5004030;28;20284;-78